createdAt,value
2022-10-23T00:00:13.770Z,2.92
2022-10-23T00:01:14.139Z,0.72
2022-10-23T00:02:26.531Z,1.44
2022-10-23T00:03:13.944Z,0.80
2022-10-23T00:04:13.282Z,0.00
2022-10-23T00:05:13.310Z,0.00
2022-10-23T00:06:13.582Z,0.24
2022-10-23T00:08:13.182Z,3.12
2022-10-23T00:09:13.388Z,0.12
2022-10-23T00:10:34.148Z,0.00
2022-10-23T00:11:13.227Z,0.24
2022-10-23T00:12:13.528Z,1.00
2022-10-23T00:13:13.632Z,2.36
2022-10-23T00:14:13.826Z,3.08
2022-10-23T00:15:14.127Z,3.24
2022-10-23T00:16:13.196Z,0.00
2022-10-23T00:17:13.253Z,0.00
2022-10-23T00:18:13.224Z,0.64
2022-10-23T00:19:13.191Z,0.32
2022-10-23T00:20:13.123Z,0.00
2022-10-23T00:21:13.337Z,0.72
2022-10-23T00:22:13.377Z,0.24
2022-10-23T00:23:13.474Z,0.00
2022-10-23T00:24:13.639Z,0.00
2022-10-23T00:25:13.613Z,0.00
2022-10-23T00:26:13.416Z,0.00
2022-10-23T00:27:13.346Z,1.20
2022-10-23T00:28:13.371Z,1.08
2022-10-23T00:29:13.538Z,0.00
2022-10-23T00:30:13.635Z,0.32
2022-10-23T00:31:13.609Z,1.72
2022-10-23T00:32:13.437Z,0.00
2022-10-23T00:33:13.331Z,0.92
2022-10-23T00:34:13.786Z,0.00
2022-10-23T00:35:14.080Z,0.00
2022-10-23T00:36:13.157Z,0.12
2022-10-23T00:37:12.989Z,0.56
2022-10-23T00:38:14.178Z,0.00
2022-10-23T00:39:13.383Z,0.00
2022-10-23T00:40:13.291Z,0.24
2022-10-23T00:41:13.217Z,0.00
2022-10-23T00:42:13.098Z,0.00
2022-10-23T00:43:13.461Z,0.00
2022-10-23T00:44:13.804Z,0.00
2022-10-23T00:45:13.784Z,0.00
2022-10-23T00:46:13.895Z,0.00
2022-10-23T00:47:12.921Z,0.00
2022-10-23T00:48:12.946Z,0.00
2022-10-23T00:50:13.959Z,0.00
2022-10-23T00:51:12.886Z,0.00
2022-10-23T00:52:12.774Z,0.00
2022-10-23T00:53:13.868Z,0.00
2022-10-23T00:54:24.816Z,0.56
2022-10-23T00:55:13.105Z,0.00
2022-10-23T00:56:13.151Z,0.00
2022-10-23T00:57:13.276Z,0.00
2022-10-23T00:58:13.330Z,0.00
2022-10-23T00:59:13.761Z,0.00
2022-10-23T01:00:13.794Z,0.00
2022-10-23T01:01:14.019Z,0.00
2022-10-23T01:02:13.188Z,0.00
2022-10-23T01:03:13.323Z,0.00
2022-10-23T01:04:13.463Z,0.00
2022-10-23T01:05:13.594Z,0.00
2022-10-23T01:06:13.835Z,0.00
2022-10-23T01:07:13.672Z,0.00
2022-10-23T01:08:13.573Z,0.00
2022-10-23T01:09:13.561Z,0.00
2022-10-23T01:10:13.761Z,0.00
2022-10-23T01:11:13.647Z,0.00
2022-10-23T01:12:13.602Z,0.00
2022-10-23T01:13:13.785Z,0.00
2022-10-23T01:14:14.071Z,0.00
2022-10-23T01:15:12.926Z,0.12
2022-10-23T01:16:12.807Z,0.20
2022-10-23T01:17:14.072Z,0.00
2022-10-23T01:18:13.165Z,0.68
2022-10-23T01:19:13.061Z,0.12
2022-10-23T01:20:12.973Z,0.00
2022-10-23T01:21:13.015Z,0.00
2022-10-23T01:22:13.275Z,0.00
2022-10-23T01:23:13.359Z,0.00
2022-10-23T01:24:13.666Z,0.00
2022-10-23T01:25:13.569Z,0.00
2022-10-23T01:26:13.482Z,0.84
2022-10-23T01:27:13.347Z,0.00
2022-10-23T01:28:13.405Z,0.00
2022-10-23T01:29:13.306Z,0.48
2022-10-23T01:30:13.181Z,0.72
2022-10-23T01:31:13.229Z,0.44
2022-10-23T01:32:13.309Z,0.00
2022-10-23T01:33:13.440Z,0.00
2022-10-23T01:34:13.439Z,0.00
2022-10-23T01:35:13.560Z,0.00
2022-10-23T01:36:13.750Z,0.00
2022-10-23T01:37:13.861Z,0.00
2022-10-23T01:38:13.735Z,0.00
2022-10-23T01:39:14.043Z,0.00
2022-10-23T01:40:12.843Z,0.00
2022-10-23T01:41:13.905Z,0.00
2022-10-23T01:42:12.788Z,0.00
2022-10-23T01:43:13.690Z,0.00
2022-10-23T01:44:13.734Z,0.00
2022-10-23T01:45:13.765Z,0.64
2022-10-23T01:46:13.852Z,0.20
2022-10-23T01:47:14.408Z,0.16
2022-10-23T01:48:13.850Z,0.00
2022-10-23T01:49:14.059Z,0.20
2022-10-23T01:50:13.108Z,0.04
2022-10-23T01:51:14.496Z,0.60
2022-10-23T01:52:13.963Z,0.36
2022-10-23T01:53:13.004Z,0.96
2022-10-23T01:54:12.896Z,0.36
2022-10-23T01:55:12.816Z,0.00
2022-10-23T01:56:14.000Z,0.00
2022-10-23T01:57:12.882Z,0.00
2022-10-23T01:58:13.990Z,0.40
2022-10-23T01:59:14.139Z,0.00
2022-10-23T02:00:13.317Z,0.00
2022-10-23T02:01:18.577Z,0.00
2022-10-23T02:02:13.723Z,0.00
2022-10-23T02:03:13.701Z,0.00
2022-10-23T02:04:13.967Z,0.00
2022-10-23T02:05:13.014Z,0.00
2022-10-23T02:06:12.932Z,0.00
2022-10-23T02:07:13.141Z,0.00
2022-10-23T02:08:13.095Z,0.00
2022-10-23T02:09:13.053Z,0.00
2022-10-23T02:10:13.280Z,0.00
2022-10-23T02:11:13.180Z,0.00
2022-10-23T02:12:13.148Z,0.00
2022-10-23T02:13:13.386Z,0.00
2022-10-23T02:14:13.662Z,0.00
2022-10-23T02:15:13.794Z,0.00
2022-10-23T02:16:14.012Z,0.00
2022-10-23T02:17:13.080Z,0.00
2022-10-23T02:18:13.143Z,0.00
2022-10-23T02:19:13.268Z,0.00
2022-10-23T02:20:13.339Z,0.00
2022-10-23T02:21:13.357Z,0.00
2022-10-23T02:22:13.248Z,0.00
2022-10-23T02:23:13.157Z,0.00
2022-10-23T02:24:13.226Z,0.00
2022-10-23T02:25:13.134Z,0.00
2022-10-23T02:26:13.716Z,0.00
2022-10-23T02:27:13.934Z,0.00
2022-10-23T02:28:12.906Z,0.00
2022-10-23T02:29:12.743Z,0.00
2022-10-23T02:30:13.506Z,0.00
2022-10-23T02:31:13.412Z,0.00
2022-10-23T02:32:13.428Z,0.00
2022-10-23T02:33:13.204Z,0.00
2022-10-23T02:34:13.106Z,0.00
2022-10-23T02:35:12.929Z,0.00
2022-10-23T02:36:12.927Z,0.00
2022-10-23T02:37:13.024Z,0.60
2022-10-23T02:38:13.261Z,0.28
2022-10-23T02:39:13.271Z,0.00
2022-10-23T02:40:13.149Z,0.00
2022-10-23T02:41:13.332Z,0.12
2022-10-23T02:42:13.213Z,0.20
2022-10-23T02:43:13.534Z,0.12
2022-10-23T02:44:13.338Z,0.00
2022-10-23T02:45:13.277Z,0.00
2022-10-23T02:46:13.385Z,0.76
2022-10-23T02:47:13.274Z,0.20
2022-10-23T02:48:13.302Z,0.00
2022-10-23T02:49:13.601Z,0.00
2022-10-23T02:50:13.461Z,0.00
2022-10-23T02:51:13.289Z,0.00
2022-10-23T02:52:13.268Z,0.00
2022-10-23T02:53:13.289Z,0.00
2022-10-23T02:54:13.419Z,0.56
2022-10-23T02:55:13.352Z,0.00
2022-10-23T02:56:13.280Z,0.00
2022-10-23T02:57:13.523Z,0.16
2022-10-23T02:58:13.432Z,0.00
2022-10-23T02:59:13.526Z,0.00
2022-10-23T03:00:13.481Z,0.00
2022-10-23T03:01:13.480Z,0.00
2022-10-23T03:02:13.520Z,0.00
2022-10-23T03:03:13.675Z,0.00
2022-10-23T03:04:13.617Z,0.00
2022-10-23T03:05:13.797Z,0.00
2022-10-23T03:06:14.038Z,0.00
2022-10-23T03:07:13.458Z,0.00
2022-10-23T03:08:13.313Z,0.00
2022-10-23T03:09:13.153Z,0.00
2022-10-23T03:10:13.050Z,0.00
2022-10-23T03:11:13.319Z,0.00
2022-10-23T03:12:13.140Z,0.00
2022-10-23T03:13:13.071Z,0.00
2022-10-23T03:14:13.111Z,0.00
2022-10-23T03:15:13.038Z,0.00
2022-10-23T03:16:12.944Z,0.00
2022-10-23T03:17:12.872Z,0.00
2022-10-23T03:18:13.958Z,0.00
2022-10-23T03:19:12.915Z,0.00
2022-10-23T03:20:12.740Z,0.00
2022-10-23T03:21:13.555Z,0.00
2022-10-23T03:22:13.443Z,0.00
2022-10-23T03:23:13.475Z,0.00
2022-10-23T03:24:13.599Z,0.00
2022-10-23T03:25:13.624Z,0.00
2022-10-23T03:26:13.935Z,0.00
2022-10-23T03:27:12.874Z,0.00
2022-10-23T03:28:14.258Z,0.00
2022-10-23T03:29:13.184Z,0.00
2022-10-23T03:30:13.198Z,0.44
2022-10-23T03:31:13.120Z,0.00
2022-10-23T03:32:13.182Z,0.00
2022-10-23T03:33:13.202Z,0.00
2022-10-23T03:34:13.113Z,0.00
2022-10-23T03:35:13.012Z,0.00
2022-10-23T03:36:12.983Z,0.00
2022-10-23T03:37:12.928Z,0.00
2022-10-23T03:38:12.856Z,0.00
2022-10-23T03:39:13.741Z,0.00
2022-10-23T03:40:13.661Z,0.00
2022-10-23T03:41:13.563Z,0.00
2022-10-23T03:42:18.473Z,0.00
2022-10-23T03:43:13.434Z,0.00
2022-10-23T03:44:13.399Z,0.00
2022-10-23T03:45:13.466Z,0.00
2022-10-23T03:46:13.357Z,0.00
2022-10-23T03:47:13.585Z,0.68
2022-10-23T03:48:13.544Z,0.00
2022-10-23T03:49:13.448Z,0.00
2022-10-23T03:50:13.326Z,0.00
2022-10-23T03:51:13.270Z,0.00
2022-10-23T03:52:13.236Z,0.00
2022-10-23T03:53:13.372Z,0.00
2022-10-23T03:54:13.302Z,0.00
2022-10-23T03:55:13.304Z,0.00
2022-10-23T03:56:13.224Z,0.00
2022-10-23T03:57:13.584Z,0.00
2022-10-23T03:58:13.557Z,0.00
2022-10-23T03:59:13.718Z,0.00
2022-10-23T04:00:13.647Z,0.00
2022-10-23T04:01:13.675Z,0.00
2022-10-23T04:02:14.093Z,0.00
2022-10-23T04:03:13.106Z,0.00
2022-10-23T04:04:13.038Z,0.00
2022-10-23T04:05:12.882Z,0.00
2022-10-23T04:06:14.084Z,0.00
2022-10-23T04:07:13.304Z,0.00
2022-10-23T04:08:17.524Z,0.00
2022-10-23T04:10:13.481Z,0.00
2022-10-23T04:11:13.818Z,0.00
2022-10-23T04:12:13.991Z,0.00
2022-10-23T04:13:12.957Z,0.00
2022-10-23T04:14:12.959Z,0.00
2022-10-23T04:15:12.881Z,1.00
2022-10-23T04:16:12.995Z,0.96
2022-10-23T04:17:13.395Z,0.28
2022-10-23T04:18:13.511Z,0.00
2022-10-23T04:19:13.389Z,2.04
2022-10-23T04:20:13.571Z,0.36
2022-10-23T04:21:13.479Z,0.00
2022-10-23T04:22:13.355Z,0.40
2022-10-23T04:23:13.501Z,0.04
2022-10-23T04:24:19.699Z,0.00
2022-10-23T04:25:13.733Z,0.00
2022-10-23T04:26:14.139Z,0.00
2022-10-23T04:27:13.281Z,0.00
2022-10-23T04:28:13.061Z,0.00
2022-10-23T04:29:13.131Z,0.00
2022-10-23T04:30:13.414Z,0.60
2022-10-23T04:31:13.306Z,0.48
2022-10-23T04:32:13.263Z,0.00
2022-10-23T04:33:13.179Z,0.00
2022-10-23T04:34:13.295Z,0.00
2022-10-23T04:35:13.173Z,0.00
2022-10-23T04:36:12.997Z,0.00
2022-10-23T04:37:13.126Z,0.00
2022-10-23T04:38:13.213Z,0.00
2022-10-23T04:39:13.362Z,0.00
2022-10-23T04:40:13.472Z,0.00
2022-10-23T04:41:13.485Z,0.00
2022-10-23T04:42:14.283Z,0.00
2022-10-23T04:43:13.293Z,0.00
2022-10-23T04:44:14.302Z,0.00
2022-10-23T04:45:13.253Z,0.00
2022-10-23T04:46:13.233Z,0.00
2022-10-23T04:47:13.138Z,0.00
2022-10-23T04:48:13.451Z,0.00
2022-10-23T04:49:13.346Z,0.00
2022-10-23T04:50:13.213Z,0.00
2022-10-23T04:51:13.496Z,0.00
2022-10-23T04:52:13.871Z,0.64
2022-10-23T04:53:13.934Z,0.00
2022-10-23T04:54:12.993Z,0.00
2022-10-23T04:55:12.866Z,0.00
2022-10-23T04:56:14.057Z,0.00
2022-10-23T04:57:13.245Z,0.00
2022-10-23T04:58:13.623Z,0.00
2022-10-23T04:59:13.496Z,0.00
2022-10-23T05:00:13.429Z,0.48
2022-10-23T05:01:13.380Z,0.00
2022-10-23T05:02:13.325Z,0.00
2022-10-23T05:03:13.532Z,0.00
2022-10-23T05:04:13.438Z,0.00
2022-10-23T05:05:13.955Z,0.00
2022-10-23T05:06:12.861Z,0.00
2022-10-23T05:07:13.883Z,0.00
2022-10-23T05:08:15.641Z,0.00
2022-10-23T05:09:12.919Z,0.00
2022-10-23T05:10:12.894Z,0.00
2022-10-23T05:11:13.803Z,0.00
2022-10-23T05:12:13.789Z,0.00
2022-10-23T05:13:14.070Z,0.00
2022-10-23T05:14:13.158Z,0.00
2022-10-23T05:15:13.498Z,0.00
2022-10-23T05:16:13.492Z,0.00
2022-10-23T05:17:13.592Z,0.00
2022-10-23T05:18:13.485Z,0.00
2022-10-23T05:19:13.443Z,0.00
2022-10-23T05:20:13.325Z,0.00
2022-10-23T05:21:13.279Z,0.00
2022-10-23T05:22:13.153Z,0.00
2022-10-23T05:23:12.995Z,0.00
2022-10-23T05:24:13.096Z,0.00
2022-10-23T05:25:13.355Z,0.00
2022-10-23T05:26:13.203Z,0.00
2022-10-23T05:27:13.210Z,0.00
2022-10-23T05:28:13.358Z,0.00
2022-10-23T05:29:13.401Z,0.00
2022-10-23T05:30:13.186Z,0.00
2022-10-23T05:31:13.037Z,0.00
2022-10-23T05:32:13.229Z,0.00
2022-10-23T05:33:13.388Z,0.00
2022-10-23T05:34:13.536Z,0.00
2022-10-23T05:35:13.519Z,0.00
2022-10-23T05:36:13.496Z,0.00
2022-10-23T05:37:13.483Z,0.00
2022-10-23T05:38:13.533Z,0.00
2022-10-23T05:39:13.522Z,0.00
2022-10-23T05:40:14.020Z,0.00
2022-10-23T05:41:13.412Z,0.00
2022-10-23T05:42:13.711Z,0.00
2022-10-23T05:43:13.700Z,0.00
2022-10-23T05:44:13.738Z,0.20
2022-10-23T05:45:13.611Z,0.00
2022-10-23T05:46:13.619Z,0.00
2022-10-23T05:47:13.549Z,0.00
2022-10-23T05:48:29.874Z,0.00
2022-10-23T05:49:12.735Z,0.00
2022-10-23T05:50:13.840Z,0.00
2022-10-23T05:51:14.098Z,0.00
2022-10-23T05:52:13.118Z,0.00
2022-10-23T05:53:13.443Z,0.00
2022-10-23T05:54:13.690Z,0.00
2022-10-23T05:55:13.597Z,0.00
2022-10-23T05:56:13.809Z,0.00
2022-10-23T05:57:13.990Z,0.00
2022-10-23T05:58:13.147Z,0.00
2022-10-23T05:59:13.284Z,0.00
2022-10-23T06:00:13.354Z,0.00
2022-10-23T06:01:13.502Z,0.00
2022-10-23T06:02:13.618Z,0.72
2022-10-23T06:03:13.717Z,0.04
2022-10-23T06:04:13.575Z,0.00
2022-10-23T06:05:14.353Z,0.00
2022-10-23T06:06:14.016Z,1.16
2022-10-23T06:07:12.889Z,0.00
2022-10-23T06:08:13.857Z,0.00
2022-10-23T06:09:14.080Z,0.00
2022-10-23T06:10:13.145Z,0.00
2022-10-23T06:11:13.173Z,0.20
2022-10-23T06:12:13.092Z,0.44
2022-10-23T06:13:13.069Z,0.58
2022-10-23T06:14:13.362Z,1.40
2022-10-23T06:15:13.345Z,2.24
2022-10-23T06:16:14.421Z,0.00
2022-10-23T06:17:13.438Z,0.07
2022-10-23T06:18:13.896Z,0.00
2022-10-23T06:19:12.729Z,0.00
2022-10-23T06:20:13.552Z,0.00
2022-10-23T06:21:13.801Z,0.76
2022-10-23T06:22:13.904Z,0.00
2022-10-23T06:23:12.994Z,0.00
2022-10-23T06:24:12.907Z,0.00
2022-10-23T06:25:12.747Z,0.12
2022-10-23T06:26:13.644Z,0.00
2022-10-23T06:27:13.682Z,0.80
2022-10-23T06:28:16.992Z,0.28
2022-10-23T06:29:13.815Z,2.28
2022-10-23T06:30:13.620Z,0.00
2022-10-23T06:31:13.450Z,0.36
2022-10-23T06:32:13.419Z,0.24
2022-10-23T06:33:13.308Z,0.92
2022-10-23T06:34:13.318Z,0.04
2022-10-23T06:35:13.360Z,0.00
2022-10-23T06:36:13.253Z,0.00
2022-10-23T06:37:13.476Z,0.16
2022-10-23T06:38:13.303Z,0.40
2022-10-23T06:39:13.480Z,0.00
2022-10-23T06:40:13.582Z,0.00
2022-10-23T06:41:13.700Z,0.00
2022-10-23T06:42:13.575Z,0.72
2022-10-23T06:43:13.479Z,0.00
2022-10-23T06:44:13.484Z,0.00
2022-10-23T06:45:13.458Z,0.00
2022-10-23T06:46:13.420Z,0.00
2022-10-23T06:47:13.353Z,0.00
2022-10-23T06:48:13.194Z,0.00
2022-10-23T06:49:13.012Z,0.00
2022-10-23T06:50:15.434Z,0.00
2022-10-23T06:51:13.720Z,0.00
2022-10-23T06:52:18.432Z,0.00
2022-10-23T06:53:13.909Z,1.52
2022-10-23T06:54:59.223Z,0.24
2022-10-23T06:55:13.349Z,0.16
2022-10-23T06:56:13.359Z,0.00
2022-10-23T06:57:13.453Z,0.00
2022-10-23T06:58:13.583Z,0.00
2022-10-23T06:59:13.622Z,0.00
2022-10-23T07:00:13.612Z,0.00
2022-10-23T07:01:14.272Z,0.00
2022-10-23T07:02:23.893Z,0.00
2022-10-23T07:03:13.070Z,0.00
2022-10-23T07:04:13.184Z,0.44
2022-10-23T07:05:13.899Z,0.00
2022-10-23T07:06:13.065Z,0.00
2022-10-23T07:07:12.891Z,0.00
2022-10-23T07:08:13.087Z,0.00
2022-10-23T07:09:13.216Z,2.08
2022-10-23T07:11:13.250Z,2.88
2022-10-23T07:12:14.320Z,0.40
2022-10-23T07:13:13.425Z,0.00
2022-10-23T07:14:13.299Z,0.00
2022-10-23T07:15:13.422Z,0.00
2022-10-23T07:16:13.573Z,0.84
2022-10-23T07:17:13.964Z,0.16
2022-10-23T07:18:12.852Z,0.28
2022-10-23T07:19:13.798Z,0.08
2022-10-23T07:20:13.894Z,0.12
2022-10-23T07:21:13.116Z,1.64
2022-10-23T07:22:15.746Z,1.28
2022-10-23T07:23:15.257Z,0.00
2022-10-23T07:24:13.308Z,0.00
2022-10-23T07:25:13.538Z,0.00
2022-10-23T07:26:13.436Z,0.00
2022-10-23T07:27:13.405Z,0.48
2022-10-23T07:28:13.637Z,0.00
2022-10-23T07:29:13.666Z,0.16
2022-10-23T07:30:13.849Z,0.00
2022-10-23T07:31:13.923Z,0.00
2022-10-23T07:32:12.859Z,0.00
2022-10-23T07:33:13.875Z,0.08
2022-10-23T07:34:14.056Z,2.76
2022-10-23T07:36:13.159Z,0.00
2022-10-23T07:37:13.349Z,0.00
2022-10-23T07:38:13.454Z,0.00
2022-10-23T07:39:13.407Z,0.00
2022-10-23T07:40:13.341Z,0.00
2022-10-23T07:41:13.425Z,0.00
2022-10-23T07:42:13.641Z,1.08
2022-10-23T07:43:13.647Z,0.00
2022-10-23T07:44:13.755Z,0.00
2022-10-23T07:45:13.636Z,0.00
2022-10-23T07:46:13.662Z,0.00
2022-10-23T07:47:13.593Z,0.00
2022-10-23T07:48:13.427Z,0.00
2022-10-23T07:49:13.744Z,0.00
2022-10-23T07:50:13.630Z,0.00
2022-10-23T07:51:13.513Z,0.00
2022-10-23T07:52:13.390Z,0.44
2022-10-23T07:53:13.328Z,0.52
2022-10-23T07:54:13.166Z,0.36
2022-10-23T07:55:13.341Z,0.00
2022-10-23T07:56:13.404Z,0.00
2022-10-23T07:57:13.560Z,0.00
2022-10-23T07:58:13.605Z,0.00
2022-10-23T07:59:13.521Z,0.00
2022-10-23T08:00:13.498Z,1.40
2022-10-23T08:01:13.491Z,0.00
2022-10-23T08:02:13.556Z,0.44
2022-10-23T08:03:13.548Z,0.04
2022-10-23T08:04:13.471Z,0.00
2022-10-23T08:05:13.502Z,0.00
2022-10-23T08:06:13.412Z,0.00
2022-10-23T08:07:13.508Z,0.24
2022-10-23T08:08:13.424Z,0.08
2022-10-23T08:09:13.540Z,0.60
2022-10-23T08:10:13.783Z,0.04
2022-10-23T08:11:14.182Z,0.08
2022-10-23T08:12:13.054Z,0.00
2022-10-23T08:13:13.552Z,0.00
2022-10-23T08:14:13.790Z,0.00
2022-10-23T08:15:13.700Z,0.00
2022-10-23T08:16:13.969Z,0.00
2022-10-23T08:17:12.890Z,0.00
2022-10-23T08:18:12.932Z,0.00
2022-10-23T08:19:12.784Z,0.68
2022-10-23T08:20:13.867Z,0.20
2022-10-23T08:21:14.042Z,1.32
2022-10-23T08:22:13.239Z,2.16
2022-10-23T08:23:13.535Z,1.92
2022-10-23T08:24:13.521Z,1.80
2022-10-23T08:25:13.452Z,1.84
2022-10-23T08:26:13.366Z,2.00
2022-10-23T08:27:13.469Z,2.48
2022-10-23T08:28:13.466Z,1.44
2022-10-23T08:29:18.842Z,1.04
2022-10-23T08:33:13.516Z,0.00
2022-10-23T08:34:13.911Z,2.96
2022-10-23T08:35:13.167Z,5.96
2022-10-23T08:36:13.382Z,5.04
2022-10-23T08:37:13.494Z,0.56
2022-10-23T08:38:14.027Z,1.52
2022-10-23T08:39:13.337Z,0.96
2022-10-23T08:40:13.557Z,0.52
2022-10-23T08:41:13.501Z,0.00
2022-10-23T08:42:13.897Z,1.32
2022-10-23T08:43:13.148Z,0.44
2022-10-23T08:44:13.243Z,2.32
2022-10-23T08:45:13.345Z,0.12
2022-10-23T08:46:13.596Z,3.24
2022-10-23T08:47:13.573Z,0.40
2022-10-23T08:48:13.464Z,0.00
2022-10-23T08:49:13.403Z,1.12
2022-10-23T08:50:13.414Z,4.44
2022-10-23T08:51:13.695Z,2.76
2022-10-23T08:52:14.200Z,2.32
2022-10-23T08:53:13.773Z,1.40
2022-10-23T08:54:13.877Z,0.28
2022-10-23T08:55:13.774Z,0.24
2022-10-23T08:56:13.759Z,2.20
2022-10-23T08:57:14.037Z,2.56
2022-10-23T08:58:13.529Z,1.68
2022-10-23T08:59:13.448Z,3.60
2022-10-23T09:00:13.293Z,0.00
2022-10-23T09:01:13.426Z,2.28
2022-10-23T09:02:13.772Z,1.00
2022-10-23T09:03:13.882Z,0.20
2022-10-23T09:04:14.094Z,0.00
2022-10-23T09:05:13.234Z,0.48
2022-10-23T09:06:13.545Z,0.00
2022-10-23T09:07:13.479Z,1.28
2022-10-23T09:08:13.388Z,3.00
2022-10-23T09:09:13.561Z,2.08
2022-10-23T09:10:13.638Z,0.32
2022-10-23T09:11:13.871Z,2.56
2022-10-23T09:12:13.902Z,0.00
2022-10-23T09:13:13.196Z,0.00
2022-10-23T09:14:13.517Z,1.80
2022-10-23T09:15:13.435Z,0.32
2022-10-23T09:16:13.499Z,0.00
2022-10-23T09:18:13.877Z,2.24
2022-10-23T09:19:13.654Z,8.04
2022-10-23T09:20:13.556Z,1.68
2022-10-23T09:21:13.496Z,0.60
2022-10-23T09:22:13.732Z,2.24
2022-10-23T09:23:13.557Z,0.00
2022-10-23T09:24:13.424Z,0.84
2022-10-23T09:25:13.606Z,0.00
2022-10-23T09:26:13.881Z,2.36
2022-10-23T09:27:13.869Z,5.64
2022-10-23T09:28:14.095Z,0.96
2022-10-23T09:29:12.990Z,0.00
2022-10-23T09:30:12.890Z,0.00
2022-10-23T09:31:13.677Z,2.32
2022-10-23T09:32:13.567Z,4.60
2022-10-23T09:33:13.683Z,3.04
2022-10-23T09:34:13.556Z,0.00
2022-10-23T09:35:13.474Z,1.00
2022-10-23T09:36:13.368Z,3.84
2022-10-23T09:37:13.410Z,1.76
2022-10-23T09:38:13.524Z,0.00
2022-10-23T09:39:14.225Z,0.00
2022-10-23T09:40:13.291Z,0.00
2022-10-23T09:41:13.429Z,0.20
2022-10-23T09:42:13.483Z,6.76
2022-10-23T09:43:13.778Z,0.44
2022-10-23T09:44:14.081Z,2.52
2022-10-23T09:45:13.087Z,2.44
2022-10-23T09:46:13.118Z,1.20
2022-10-23T09:47:13.078Z,0.40
2022-10-23T09:48:12.987Z,3.68
2022-10-23T09:49:12.844Z,2.76
2022-10-23T09:50:13.744Z,2.28
2022-10-23T09:51:14.036Z,2.36
2022-10-23T09:52:12.933Z,0.92
2022-10-23T09:53:13.236Z,3.28
2022-10-23T09:54:13.240Z,4.32
2022-10-23T09:55:13.264Z,1.88
2022-10-23T09:56:13.730Z,0.56
2022-10-23T09:57:13.743Z,1.36
2022-10-23T09:58:14.087Z,0.68
2022-10-23T09:59:13.417Z,4.08
2022-10-23T10:00:13.263Z,8.56
2022-10-23T10:01:13.421Z,5.40
2022-10-23T10:02:13.786Z,0.64
2022-10-23T10:03:12.777Z,1.56
2022-10-23T10:04:13.670Z,6.96
2022-10-23T10:05:14.399Z,2.56
2022-10-23T10:06:13.275Z,0.92
2022-10-23T10:07:13.546Z,1.00
2022-10-23T10:08:13.498Z,0.36
2022-10-23T10:09:13.314Z,1.24
2022-10-23T10:10:13.206Z,7.00
2022-10-23T10:11:13.146Z,1.84
2022-10-23T10:12:13.400Z,4.60
2022-10-23T10:13:15.066Z,1.48
2022-10-23T10:14:13.221Z,4.52
2022-10-23T10:15:13.263Z,5.24
2022-10-23T10:16:13.112Z,4.16
2022-10-23T10:17:13.122Z,2.56
2022-10-23T10:18:13.725Z,1.84
2022-10-23T10:19:13.833Z,5.76
2022-10-23T10:20:13.885Z,4.92
2022-10-23T10:21:14.074Z,2.32
2022-10-23T10:22:12.936Z,4.28
2022-10-23T10:23:12.944Z,5.92
2022-10-23T10:24:12.769Z,0.60
2022-10-23T10:25:14.195Z,4.40
2022-10-23T10:26:14.887Z,5.16
2022-10-23T10:27:13.108Z,4.00
2022-10-23T10:28:12.981Z,6.20
2022-10-23T10:29:12.965Z,8.16
2022-10-23T10:30:13.142Z,2.76
2022-10-23T10:31:13.325Z,5.40
2022-10-23T10:32:13.161Z,5.40
2022-10-23T10:33:13.428Z,3.60
2022-10-23T10:34:13.266Z,3.00
2022-10-23T10:35:13.173Z,3.48
2022-10-23T10:36:13.136Z,1.80
2022-10-23T10:37:13.060Z,0.80
2022-10-23T10:38:13.202Z,4.88
2022-10-23T10:39:13.495Z,5.68
2022-10-23T10:40:13.348Z,1.80
2022-10-23T10:41:13.376Z,4.60
2022-10-23T10:42:13.244Z,7.84
2022-10-23T10:43:13.580Z,3.80
2022-10-23T10:44:13.614Z,0.84
2022-10-23T10:45:13.633Z,1.68
2022-10-23T10:46:13.598Z,14.36
2022-10-23T10:47:15.961Z,7.04
2022-10-23T10:48:13.841Z,5.20
2022-10-23T10:49:14.298Z,1.68
2022-10-23T10:50:13.265Z,7.48
2022-10-23T10:51:13.784Z,7.64
2022-10-23T10:52:14.049Z,3.44
2022-10-23T10:53:13.382Z,2.76
2022-10-23T10:54:13.600Z,7.00
2022-10-23T10:55:13.755Z,4.60
2022-10-23T10:56:13.923Z,3.00
2022-10-23T10:57:12.785Z,7.76
2022-10-23T10:58:13.798Z,1.00
2022-10-23T10:59:13.841Z,4.56
2022-10-23T11:00:13.955Z,3.64
2022-10-23T11:01:12.927Z,2.12
2022-10-23T11:02:13.133Z,1.08
2022-10-23T11:03:13.178Z,1.52
2022-10-23T11:04:13.462Z,5.12
2022-10-23T11:05:13.322Z,10.92
2022-10-23T11:06:13.247Z,2.24
2022-10-23T11:07:13.271Z,0.80
2022-10-23T11:08:13.209Z,2.32
2022-10-23T11:09:20.336Z,0.44
2022-10-23T11:10:12.911Z,2.56
2022-10-23T11:11:12.920Z,6.84
2022-10-23T11:12:13.209Z,1.32
2022-10-23T11:13:13.201Z,1.32
2022-10-23T11:14:13.158Z,4.52
2022-10-23T11:15:13.161Z,1.32
2022-10-23T11:16:13.022Z,2.40
2022-10-23T11:17:13.139Z,0.32
2022-10-23T11:18:13.026Z,1.48
2022-10-23T11:19:14.169Z,2.00
2022-10-23T11:20:13.601Z,1.37
2022-10-23T11:21:13.507Z,4.52
2022-10-23T11:22:13.525Z,3.52
2022-10-23T11:23:13.450Z,8.68
2022-10-23T11:24:13.276Z,5.80
2022-10-23T11:25:13.155Z,4.88
2022-10-23T11:26:16.209Z,4.16
2022-10-23T11:27:12.751Z,9.08
2022-10-23T11:28:13.777Z,2.56
2022-10-23T11:29:12.859Z,2.88
2022-10-23T11:30:13.964Z,2.76
2022-10-23T11:31:13.117Z,1.72
2022-10-23T11:32:13.248Z,0.64
2022-10-23T11:33:13.520Z,2.40
2022-10-23T11:34:15.010Z,1.96
2022-10-23T11:35:13.159Z,0.36
2022-10-23T11:36:13.190Z,4.00
2022-10-23T11:37:13.360Z,6.24
2022-10-23T11:38:13.496Z,1.20
2022-10-23T11:39:13.479Z,0.00
2022-10-23T11:40:13.616Z,1.56
2022-10-23T11:41:13.685Z,4.40
2022-10-23T11:42:13.797Z,3.52
2022-10-23T11:43:13.885Z,5.80
2022-10-23T11:44:13.791Z,1.20
2022-10-23T11:45:13.746Z,3.36
2022-10-23T11:46:13.647Z,4.08
2022-10-23T11:47:13.482Z,8.24
2022-10-23T11:48:13.606Z,3.20
2022-10-23T11:49:13.500Z,9.36
2022-10-23T11:50:13.593Z,3.12
2022-10-23T11:51:13.552Z,2.88
2022-10-23T11:52:13.774Z,5.88
2022-10-23T11:53:15.105Z,2.12
2022-10-23T11:54:12.970Z,5.24
2022-10-23T11:55:13.031Z,4.80
2022-10-23T11:56:13.040Z,1.20
2022-10-23T11:57:12.990Z,2.28
2022-10-23T11:58:12.895Z,0.00
2022-10-23T11:59:14.098Z,0.00
2022-10-23T12:00:12.990Z,0.00
2022-10-23T12:01:12.964Z,0.00
2022-10-23T12:02:13.529Z,1.84
2022-10-23T12:03:13.346Z,5.48
2022-10-23T12:04:13.187Z,6.08
2022-10-23T12:05:13.104Z,6.52
2022-10-23T12:06:13.179Z,1.20
2022-10-23T12:07:13.287Z,3.60
2022-10-23T12:08:13.315Z,6.56
2022-10-23T12:09:13.326Z,3.24
2022-10-23T12:10:13.440Z,3.48
2022-10-23T12:11:13.389Z,10.20
2022-10-23T12:12:13.578Z,2.56
2022-10-23T12:13:13.471Z,0.44
2022-10-23T12:15:13.683Z,7.12
2022-10-23T12:16:13.729Z,4.32
2022-10-23T12:17:13.789Z,7.08
2022-10-23T12:18:13.620Z,5.64
2022-10-23T12:19:13.619Z,4.68
2022-10-23T12:20:13.653Z,3.32
2022-10-23T12:21:13.518Z,3.20
2022-10-23T12:22:13.449Z,8.68
2022-10-23T12:23:13.429Z,3.96
2022-10-23T12:24:13.575Z,5.16
2022-10-23T12:25:13.452Z,2.68
2022-10-23T12:26:13.274Z,3.00
2022-10-23T12:27:13.068Z,6.08
2022-10-23T12:28:13.275Z,8.76
2022-10-23T12:29:13.205Z,11.76
2022-10-23T12:30:13.195Z,6.16
2022-10-23T12:31:13.488Z,10.36
2022-10-23T12:32:13.604Z,4.32
2022-10-23T12:33:13.470Z,3.52
2022-10-23T12:34:13.440Z,3.28
2022-10-23T12:35:13.412Z,4.84
2022-10-23T12:36:13.284Z,3.72
2022-10-23T12:37:13.422Z,4.48
2022-10-23T12:38:13.432Z,7.60
2022-10-23T12:39:13.360Z,6.12
2022-10-23T12:40:13.979Z,4.16
2022-10-23T12:41:12.972Z,4.44
2022-10-23T12:42:12.870Z,7.88
2022-10-23T12:43:13.917Z,12.92
2022-10-23T12:44:13.075Z,11.20
2022-10-23T12:45:13.033Z,6.20
2022-10-23T12:46:15.482Z,12.16
2022-10-23T12:47:13.705Z,3.96
2022-10-23T12:48:13.577Z,2.16
2022-10-23T12:49:13.962Z,13.00
2022-10-23T12:50:12.921Z,7.44
2022-10-23T12:51:12.769Z,11.80
2022-10-23T12:52:13.768Z,5.04
2022-10-23T12:53:13.754Z,14.00
2022-10-23T12:54:13.643Z,14.44
2022-10-23T12:55:13.720Z,13.36
2022-10-23T12:56:13.509Z,9.44
2022-10-23T12:57:16.130Z,5.84
2022-10-23T12:58:13.107Z,8.64
2022-10-23T12:59:13.108Z,11.16
2022-10-23T13:00:12.989Z,5.80
2022-10-23T13:01:14.349Z,14.84
2022-10-23T13:02:14.018Z,12.48
2022-10-23T13:03:13.024Z,9.16
2022-10-23T13:04:13.121Z,12.00
2022-10-23T13:05:13.006Z,8.36
2022-10-23T13:06:12.952Z,10.64
2022-10-23T13:07:12.886Z,13.00
2022-10-23T13:08:12.855Z,14.24
2022-10-23T13:09:14.095Z,6.56
2022-10-23T13:10:13.035Z,8.88
2022-10-23T13:11:13.008Z,7.40
2022-10-23T13:12:13.010Z,10.00
2022-10-23T13:13:13.199Z,12.88
2022-10-23T13:14:13.174Z,8.28
2022-10-23T13:15:13.072Z,13.12
2022-10-23T13:16:13.401Z,10.68
2022-10-23T13:17:13.562Z,21.92
2022-10-23T13:18:13.441Z,18.44
2022-10-23T13:19:13.414Z,13.76
2022-10-23T13:20:13.533Z,14.64
2022-10-23T13:21:13.531Z,13.04
2022-10-23T13:22:13.423Z,12.64
2022-10-23T13:23:13.406Z,3.72
2022-10-23T13:24:13.617Z,16.24
2022-10-23T13:25:13.586Z,7.52
2022-10-23T13:26:13.759Z,6.60
2022-10-23T13:27:13.648Z,8.16